Time;durP1;ratioP1;P1;durP2;ratioP2;P2;SDS_P1;SDS_P2;PMS_P1;PMS_P2;Temp;Humidity;BMP_temperature;BMP_pressure;BME280_temperature;BME280_humidity;BME280_pressure;Samples;Min_cycle;Max_cycle;Signal;HPM_P1;HPM_P2
2023/06/15 00:01:48;;;;;;;9.00;8.20;;;;;;;15.15;78.97;101114.84;5024181;28;20669;-72
2023/06/15 00:04:14;;;;;;;9.03;8.13;;;;;;;15.14;78.99;101115.97;5012296;28;20584;-73
2023/06/15 00:06:43;;;;;;;8.47;7.73;;;;;;;15.14;78.62;101121.28;5011021;28;20215;-72
2023/06/15 00:09:12;;;;;;;10.03;9.03;;;;;;;15.13;78.63;101115.22;5012899;28;20205;-72
2023/06/15 00:11:38;;;;;;;9.60;8.70;;;;;;;15.12;78.85;101118.22;4997902;28;20237;-72
2023/06/15 00:14:07;;;;;;;8.87;7.93;;;;;;;15.11;78.84;101125.41;5010792;28;20222;-72
2023/06/15 00:16:33;;;;;;;10.27;8.10;;;;;;;15.11;78.75;101120.09;5010498;28;20204;-72
2023/06/15 00:19:02;;;;;;;9.23;8.43;;;;;;;15.10;79.38;101113.22;5017232;28;20266;-72
2023/06/15 00:21:33;;;;;;;9.63;8.70;;;;;;;15.10;79.13;101123.06;5011787;28;20227;-72
2023/06/15 00:24:00;;;;;;;8.93;8.13;;;;;;;15.09;78.64;101122.31;5009705;28;20246;-71
2023/06/15 00:26:27;;;;;;;11.27;9.50;;;;;;;15.10;79.02;101117.75;5011131;28;20189;-72
2023/06/15 00:28:54;;;;;;;10.00;9.10;;;;;;;15.09;78.91;101113.56;5011570;28;20251;-72
2023/06/15 00:31:22;;;;;;;9.90;8.90;;;;;;;15.08;78.70;101123.44;5025985;28;20200;-72
2023/06/15 00:33:52;;;;;;;9.67;8.77;;;;;;;15.09;78.53;101121.53;5013947;28;20220;-72
2023/06/15 00:36:19;;;;;;;10.13;9.13;;;;;;;15.09;78.56;101111.69;5004287;28;20724;-72
2023/06/15 00:38:45;;;;;;;10.07;8.93;;;;;;;15.08;78.77;101112.81;5008931;28;20215;-73
2023/06/15 00:41:12;;;;;;;9.10;8.17;;;;;;;15.09;78.67;101111.69;5009669;28;20204;-71
2023/06/15 00:43:41;;;;;;;9.90;8.77;;;;;;;15.10;78.59;101115.09;5010045;28;20610;-72
2023/06/15 00:46:09;;;;;;;10.27;9.37;;;;;;;15.09;79.03;101126.84;5016793;28;20659;-72
2023/06/15 00:48:36;;;;;;;10.03;9.03;;;;;;;15.08;78.77;101109.34;5027867;28;20219;-72
2023/06/15 00:51:03;;;;;;;9.97;8.97;;;;;;;15.09;78.56;101108.25;5002627;28;20212;-72
2023/06/15 00:53:30;;;;;;;14.20;9.37;;;;;;;15.09;78.36;101116.22;5009089;28;20228;-72
2023/06/15 00:55:59;;;;;;;10.87;9.57;;;;;;;15.07;79.12;101113.13;5010724;28;20307;-72
2023/06/15 00:58:27;;;;;;;11.43;10.07;;;;;;;15.07;78.78;101107.81;5010092;28;20279;-72
2023/06/15 01:00:55;;;;;;;11.33;10.03;;;;;;;15.07;78.88;101113.13;5010545;28;20672;-72
2023/06/15 01:03:22;;;;;;;10.80;9.70;;;;;;;15.05;78.78;101104.75;5017356;28;20231;-73
2023/06/15 01:05:52;;;;;;;11.23;10.03;;;;;;;15.04;78.85;101103.16;5009209;28;20193;-72
2023/06/15 01:08:20;;;;;;;10.83;9.73;;;;;;;15.03;79.11;101105.06;5027562;28;20594;-72
2023/06/15 01:10:48;;;;;;;12.20;9.93;;;;;;;15.01;79.18;101104.63;5029342;28;20235;-72
2023/06/15 01:13:20;;;;;;;12.93;10.27;;;;;;;14.99;79.55;101101.53;5029076;28;20576;-73
2023/06/15 01:15:47;;;;;;;11.50;10.30;;;;;;;14.98;78.85;101093.91;5025244;28;20309;-72
2023/06/15 01:18:20;;;;;;;11.87;9.80;;;;;;;14.97;78.96;101103.78;5027482;28;20571;-72
2023/06/15 01:20:48;;;;;;;11.20;9.97;;;;;;;14.96;79.08;101104.13;5022555;28;20207;-72
2023/06/15 01:23:37;;;;;;;11.13;9.97;;;;;;;14.95;79.03;101099.91;5029131;28;20569;-73
2023/06/15 01:26:07;;;;;;;10.30;9.07;;;;;;;14.94;79.45;101103.66;5015439;28;20201;-72
2023/06/15 01:28:35;;;;;;;12.37;10.03;;;;;;;14.93;79.30;101102.91;5010195;28;20189;-72
2023/06/15 01:31:02;;;;;;;10.43;9.17;;;;;;;14.92;79.13;101101.38;5015239;28;20592;-72
2023/06/15 01:33:30;;;;;;;11.37;9.67;;;;;;;14.91;78.60;101099.81;5010477;28;20233;-72
2023/06/15 01:35:57;;;;;;;11.50;10.30;;;;;;;14.92;79.08;101088.09;5009697;28;20216;-72
2023/06/15 01:38:26;;;;;;;10.60;9.63;;;;;;;14.89;78.74;101102.03;5008676;28;20217;-72
2023/06/15 01:40:54;;;;;;;10.37;8.90;;;;;;;14.89;78.56;101095.94;5008471;28;20218;-72
2023/06/15 01:43:25;;;;;;;11.47;9.10;;;;;;;14.86;78.80;101093.97;5008931;28;20278;-72
2023/06/15 01:45:55;;;;;;;10.60;9.60;;;;;;;14.85;78.82;101089.78;5015463;28;20187;-72
2023/06/15 01:48:21;;;;;;;10.33;9.00;;;;;;;14.82;79.06;101090.44;5030108;28;20584;-72
2023/06/15 01:50:48;;;;;;;11.07;9.83;;;;;;;14.81;79.24;101091.56;5020886;28;20221;-72
2023/06/15 01:53:15;;;;;;;10.70;9.60;;;;;;;14.78;79.31;101078.94;5017024;28;20228;-73
2023/06/15 01:55:41;;;;;;;10.97;9.80;;;;;;;14.79;79.15;101080.50;5021625;28;20233;-72
2023/06/15 01:58:09;;;;;;;11.30;10.20;;;;;;;14.78;78.83;101082.38;5028612;28;20666;-72
2023/06/15 02:00:37;;;;;;;12.27;9.17;;;;;;;14.77;78.93;101086.16;5009484;28;20253;-72
2023/06/15 02:03:04;;;;;;;12.63;11.37;;;;;;;14.78;78.75;101077.06;5009800;28;20303;-72
2023/06/15 02:05:32;;;;;;;13.97;10.80;;;;;;;14.77;79.04;101075.53;5008901;28;20234;-73
2023/06/15 02:07:58;;;;;;;11.33;10.23;;;;;;;14.78;79.53;101065.66;5008615;28;20208;-72
2023/06/15 02:10:25;;;;;;;13.10;10.40;;;;;;;14.77;79.39;101066.78;5009713;28;20964;-72
2023/06/15 02:12:51;;;;;;;12.30;11.10;;;;;;;14.77;79.49;101066.78;5024606;28;20200;-72
2023/06/15 02:15:19;;;;;;;11.23;10.07;;;;;;;14.75;79.37;101069.75;5024882;28;20231;-72
2023/06/15 02:18:00;;;;;;;12.00;10.27;;;;;;;14.74;78.85;101076.19;5026376;28;20289;-72
2023/06/15 02:20:27;;;;;;;11.73;10.63;;;;;;;14.75;79.15;101059.13;5021833;28;20649;-72
2023/06/15 02:22:57;;;;;;;14.27;11.93;;;;;;;14.77;79.14;101072.88;5013095;28;20230;-72
2023/06/15 02:25:25;;;;;;;12.40;10.57;;;;;;;14.52;79.85;101074.09;5011434;28;20204;-72
2023/06/15 02:27:51;;;;;;;11.20;10.10;;;;;;;14.51;79.88;101069.13;5016078;28;20192;-73
2023/06/15 02:30:21;;;;;;;13.13;11.83;;;;;;;14.55;79.50;101077.97;5015150;28;20304;-72
2023/06/15 02:32:52;;;;;;;11.63;10.47;;;;;;;14.49;79.74;101071.34;5010739;28;20251;-72
2023/06/15 02:35:20;;;;;;;12.77;11.47;;;;;;;14.49;79.71;101076.66;5011652;28;20227;-72
2023/06/15 02:37:47;;;;;;;13.73;12.33;;;;;;;14.66;79.10;101065.72;5011397;28;20204;-72
2023/06/15 02:40:14;;;;;;;12.73;11.43;;;;;;;14.65;78.77;101064.19;5013287;28;20282;-72
2023/06/15 02:42:40;;;;;;;12.87;11.20;;;;;;;14.41;79.75;101069.59;5002489;28;20241;-72
2023/06/15 02:45:08;;;;;;;11.90;10.70;;;;;;;14.35;80.09;101071.75;5030740;28;20291;-72
2023/06/15 02:47:35;;;;;;;11.27;10.17;;;;;;;14.34;80.31;101067.53;5030597;28;20338;-72
2023/06/15 02:50:03;;;;;;;13.93;11.20;;;;;;;14.33;80.31;101073.19;5017032;28;20226;-72
2023/06/15 02:52:36;;;;;;;13.37;11.87;;;;;;;14.30;80.38;101074.66;5013340;28;20198;-72
2023/06/15 02:55:05;;;;;;;12.53;11.23;;;;;;;14.30;80.53;101066.69;5025528;28;20206;-72
2023/06/15 02:57:32;;;;;;;12.13;10.93;;;;;;;14.31;80.55;101072.75;5011231;28;20588;-72
2023/06/15 03:00:23;;;;;;;14.60;13.07;;;;;;;14.31;80.30;101072.75;5011148;28;20216;-72
2023/06/15 03:02:58;;;;;;;12.23;10.93;;;;;;;14.31;80.67;101067.44;5011134;28;20307;-72
2023/06/15 03:05:30;;;;;;;13.83;12.43;;;;;;;14.31;80.53;101064.78;5028522;28;20196;-72
2023/06/15 03:07:59;;;;;;;12.80;11.53;;;;;;;14.31;80.63;101076.19;5018027;28;20203;-72
2023/06/15 03:10:42;;;;;;;13.30;11.90;;;;;;;14.32;80.67;101075.06;5010967;28;20294;-72
2023/06/15 03:13:09;;;;;;;13.87;12.10;;;;;;;14.35;80.75;101076.28;5017938;28;20230;-72
2023/06/15 03:15:35;;;;;;;14.73;11.93;;;;;;;14.35;80.63;101079.72;5012884;28;20502;-73
2023/06/15 03:18:04;;;;;;;13.27;11.87;;;;;;;14.36;81.00;101081.25;5018441;28;20209;-72
2023/06/15 03:20:32;;;;;;;13.43;12.10;;;;;;;14.37;80.94;101071.38;5011871;28;20489;-72
2023/06/15 03:22:59;;;;;;;14.40;12.93;;;;;;;14.38;80.47;101076.38;5030272;28;20563;-72
2023/06/15 03:25:26;;;;;;;15.53;13.20;;;;;;;14.37;80.91;101074.84;5014616;28;20749;-72
2023/06/15 03:27:59;;;;;;;13.77;12.40;;;;;;;14.39;80.77;101071.84;5015945;28;20203;-72
2023/06/15 03:30:27;;;;;;;13.23;11.80;;;;;;;14.39;80.90;101077.91;5013088;28;20583;-72
2023/06/15 03:32:53;;;;;;;12.80;11.40;;;;;;;14.44;80.84;101076.91;5015653;28;20230;-72
2023/06/15 03:35:23;;;;;;;14.33;12.40;;;;;;;14.44;80.63;101083.00;5012580;28;20217;-73
2023/06/15 03:37:51;;;;;;;16.63;12.97;;;;;;;14.46;80.88;101080.00;5011385;28;20246;-72
2023/06/15 03:40:20;;;;;;;14.20;12.90;;;;;;;14.49;81.30;101079.34;5010457;28;20303;-71
2023/06/15 03:42:47;;;;;;;18.70;14.30;;;;;;;14.52;80.80;101083.94;5014323;28;20222;-72
2023/06/15 03:45:13;;;;;;;14.57;13.20;;;;;;;14.53;81.37;101085.50;5014934;28;20207;-72
2023/06/15 03:47:43;;;;;;;16.13;14.43;;;;;;;14.52;80.79;101095.38;5018831;28;20204;-72
2023/06/15 03:50:11;;;;;;;14.50;13.00;;;;;;;14.55;80.40;101092.00;5009930;28;20211;-72
2023/06/15 03:52:37;;;;;;;14.57;13.17;;;;;;;14.61;80.58;101092.56;5009560;28;20334;-72
2023/06/15 03:55:09;;;;;;;14.80;13.27;;;;;;;14.63;81.33;101096.41;5003703;28;20214;-72
2023/06/15 03:57:35;;;;;;;15.60;14.00;;;;;;;14.65;81.25;101096.84;5009810;28;20203;-72
2023/06/15 04:00:03;;;;;;;16.10;13.97;;;;;;;14.68;81.02;101098.84;5010774;28;20279;-72
2023/06/15 04:02:39;;;;;;;13.17;11.87;;;;;;;14.73;81.38;101101.25;5011050;28;20239;-72
2023/06/15 04:05:05;;;;;;;14.17;12.80;;;;;;;14.77;81.11;101102.13;5009270;28;20309;-72
2023/06/15 04:07:32;;;;;;;15.97;13.53;;;;;;;14.82;80.77;101109.06;5010890;28;20195;-72
2023/06/15 04:09:59;;;;;;;13.80;12.40;;;;;;;14.85;81.20;101111.06;5009203;28;20304;-72
2023/06/15 04:12:27;;;;;;;15.13;12.03;;;;;;;14.88;80.88;101108.47;5019208;28;20547;-72
2023/06/15 04:14:54;;;;;;;12.97;11.77;;;;;;;14.94;80.46;101107.13;5009175;28;20317;-72
2023/06/15 04:17:21;;;;;;;14.30;12.97;;;;;;;14.98;80.85;101113.31;5008941;28;20592;-72
2023/06/15 04:19:48;;;;;;;13.07;11.83;;;;;;;15.00;80.27;101103.09;5029340;28;20206;-72
2023/06/15 04:22:15;;;;;;;13.87;12.50;;;;;;;15.01;80.74;101104.63;5012604;28;20193;-72
2023/06/15 04:24:41;;;;;;;13.20;11.80;;;;;;;15.04;80.46;101100.50;5008781;28;20276;-72
2023/06/15 04:27:08;;;;;;;13.97;12.67;;;;;;;15.06;80.24;101106.28;5010387;28;20196;-72
2023/06/15 04:29:36;;;;;;;14.93;13.43;;;;;;;15.05;80.09;101108.16;5008511;28;20247;-72
2023/06/15 04:32:06;;;;;;;14.50;13.17;;;;;;;15.06;80.54;101106.28;5014991;28;20212;-72
2023/06/15 04:34:34;;;;;;;13.40;12.20;;;;;;;15.08;80.38;101107.47;5018302;28;20315;-72
2023/06/15 04:37:01;;;;;;;14.67;13.27;;;;;;;15.08;80.03;101107.47;5020054;28;20224;-72
2023/06/15 04:39:28;;;;;;;15.50;13.10;;;;;;;15.11;80.24;101100.72;5026619;28;20199;-73
2023/06/15 04:42:03;;;;;;;13.97;12.67;;;;;;;15.15;80.16;101105.00;5024752;28;20217;-72
2023/06/15 04:44:30;;;;;;;15.40;13.93;;;;;;;15.20;80.51;101103.94;5016476;28;20739;-72
2023/06/15 04:47:00;;;;;;;16.37;14.67;;;;;;;15.29;81.06;101107.22;5008762;28;20192;-72
2023/06/15 04:49:26;;;;;;;15.90;14.30;;;;;;;15.38;80.54;101102.53;5006740;28;20213;-72
2023/06/15 04:51:53;;;;;;;16.50;14.87;;;;;;;15.49;80.56;101106.22;5013466;28;20726;-72
2023/06/15 04:54:21;;;;;;;18.63;14.93;;;;;;;15.60;80.88;101113.34;5013293;28;20386;-72
2023/06/15 04:56:48;;;;;;;15.43;14.03;;;;;;;15.71;79.95;101110.91;5025696;28;20212;-72
2023/06/15 04:59:14;;;;;;;15.13;13.03;;;;;;;15.81;79.79;101124.47;5028206;28;20570;-72
2023/06/15 05:01:41;;;;;;;16.63;13.10;;;;;;;15.91;79.16;101117.81;5023377;28;20667;-72
2023/06/15 05:04:16;;;;;;;14.03;12.63;;;;;;;16.03;79.10;101115.03;5013284;28;20210;-72
2023/06/15 05:06:43;;;;;;;15.30;12.90;;;;;;;16.16;79.41;101117.25;5009747;28;20584;-72
2023/06/15 05:09:10;;;;;;;13.43;11.13;;;;;;;16.30;78.30;101119.44;5025743;28;20231;-72
2023/06/15 05:11:37;;;;;;;12.53;11.33;;;;;;;16.39;76.95;101115.44;5013396;28;20243;-72
2023/06/15 05:14:05;;;;;;;12.33;9.97;;;;;;;16.45;75.27;101115.97;5010671;28;20225;-72
2023/06/15 05:16:31;;;;;;;11.57;10.47;;;;;;;16.54;75.82;101111.16;5015242;28;20698;-72
2023/06/15 05:18:58;;;;;;;10.93;9.43;;;;;;;16.62;75.98;101105.59;5008916;28;20228;-72
2023/06/15 05:21:26;;;;;;;11.00;9.90;;;;;;;16.69;75.64;101115.63;5009130;28;20216;-73
2023/06/15 05:23:52;;;;;;;10.90;9.80;;;;;;;16.72;75.55;101125.63;4994139;28;20782;-72
2023/06/15 05:26:23;;;;;;;11.97;10.43;;;;;;;16.73;75.46;101127.94;5007193;28;20297;-73
2023/06/15 05:28:50;;;;;;;11.57;9.77;;;;;;;16.76;75.52;101134.47;5009535;28;20209;-72
2023/06/15 05:31:17;;;;;;;11.23;10.13;;;;;;;16.78;75.51;101126.88;5017720;28;20210;-72
2023/06/15 05:33:43;;;;;;;11.87;8.57;;;;;;;16.81;75.60;101118.94;5016354;28;20501;-73
2023/06/15 05:36:10;;;;;;;12.10;9.20;;;;;;;16.85;74.33;101132.31;5008401;28;20216;-73
2023/06/15 05:38:39;;;;;;;13.73;9.43;;;;;;;16.88;73.78;101123.63;5006659;28;20207;-73
2023/06/15 05:41:06;;;;;;;10.17;9.17;;;;;;;16.93;73.57;101123.34;5008530;28;20232;-73
2023/06/15 05:43:32;;;;;;;10.53;9.50;;;;;;;16.99;73.33;101122.69;5007894;28;20599;-73
2023/06/15 05:45:59;;;;;;;9.97;8.97;;;;;;;17.06;73.45;101124.69;5012695;28;20241;-72
2023/06/15 05:48:25;;;;;;;15.47;9.80;;;;;;;17.10;73.44;101123.66;5008150;28;20541;-72
2023/06/15 05:50:53;;;;;;;13.23;9.77;;;;;;;17.15;71.91;101128.69;5007763;28;20199;-72
2023/06/15 05:53:20;;;;;;;11.93;9.13;;;;;;;17.23;72.38;101127.66;5012173;28;20367;-73
2023/06/15 05:55:47;;;;;;;10.97;8.83;;;;;;;17.25;72.44;101133.44;5019488;28;20302;-72
2023/06/15 05:58:16;;;;;;;12.07;8.70;;;;;;;17.28;71.20;101138.06;5012846;28;20577;-72
2023/06/15 06:00:42;;;;;;;11.87;8.73;;;;;;;17.29;70.27;101133.50;5011488;28;20703;-72
2023/06/15 06:03:09;;;;;;;11.30;8.67;;;;;;;17.32;70.98;101127.41;5002526;28;20228;-72
2023/06/15 06:05:40;;;;;;;10.07;8.93;;;;;;;17.39;72.01;101127.59;5011356;28;20272;-73
2023/06/15 06:08:06;;;;;;;11.60;8.20;;;;;;;17.44;70.24;101129.97;5010896;28;20200;-72
2023/06/15 06:10:33;;;;;;;10.17;8.90;;;;;;;17.50;69.97;101133.88;5013940;28;20344;-72
2023/06/15 06:13:12;;;;;;;10.23;9.03;;;;;;;17.57;69.68;101129.41;5017530;28;20225;-73
2023/06/15 06:15:41;;;;;;;10.00;8.53;;;;;;;17.66;70.31;101135.28;5012089;28;20196;-73
2023/06/15 06:18:07;;;;;;;9.80;8.30;;;;;;;17.74;68.04;101128.13;5015846;28;20223;-73
2023/06/15 06:20:35;;;;;;;9.50;7.87;;;;;;;17.82;66.96;101132.44;5011435;28;20205;-73
2023/06/15 06:23:03;;;;;;;8.33;6.90;;;;;;;17.87;68.02;101130.25;5009869;28;20220;-72
2023/06/15 06:25:30;;;;;;;9.00;8.10;;;;;;;17.96;68.08;101128.06;5022432;28;20673;-72
2023/06/15 06:27:57;;;;;;;10.80;8.03;;;;;;;18.04;67.04;101128.91;5011934;28;20756;-73
2023/06/15 06:30:25;;;;;;;8.53;7.73;;;;;;;18.13;67.72;101137.44;5013811;28;20205;-72
2023/06/15 06:32:51;;;;;;;10.87;7.93;;;;;;;18.21;67.82;101133.75;5001638;28;20201;-72
2023/06/15 06:35:17;;;;;;;11.37;7.80;;;;;;;18.31;68.29;101136.53;5018743;28;20202;-72
2023/06/15 06:37:44;;;;;;;10.17;7.60;;;;;;;18.38;66.64;101138.56;5010939;28;20402;-72
2023/06/15 06:40:11;;;;;;;8.87;7.33;;;;;;;18.46;68.62;101137.50;5000646;28;20205;-72
2023/06/15 06:42:37;;;;;;;8.63;7.60;;;;;;;18.57;67.31;101146.44;5012603;28;20204;-72
2023/06/15 06:45:04;;;;;;;11.23;7.73;;;;;;;18.67;67.61;101141.19;5009948;28;20601;-72
2023/06/15 06:47:32;;;;;;;9.03;8.10;;;;;;;18.77;67.48;101143.22;5023764;28;20315;-72
2023/06/15 06:49:59;;;;;;;8.63;7.73;;;;;;;18.90;67.13;101143.75;5022833;28;20204;-72
2023/06/15 06:52:25;;;;;;;8.10;7.30;;;;;;;18.98;66.85;101137.31;5019547;28;20235;-73
2023/06/15 06:54:52;;;;;;;8.20;7.27;;;;;;;19.06;66.39;101136.25;5012428;28;20610;-72
2023/06/15 06:57:18;;;;;;;10.63;7.87;;;;;;;19.16;67.12;101136.34;5015882;28;20214;-72
2023/06/15 06:59:44;;;;;;;8.63;7.73;;;;;;;19.27;67.01;101136.47;5003782;28;20284;-72
2023/06/15 07:02:11;;;;;;;9.60;7.57;;;;;;;19.36;66.64;101126.97;5015538;28;20208;-72
2023/06/15 07:04:39;;;;;;;7.47;6.77;;;;;;;19.44;63.87;101123.22;5002915;28;20217;-72
2023/06/15 07:07:05;;;;;;;7.87;7.07;;;;;;;19.50;66.97;101124.41;5018158;28;20208;-72
2023/06/15 07:09:32;;;;;;;14.73;6.90;;;;;;;19.57;64.36;101129.84;5017497;28;20192;-72
2023/06/15 07:11:58;;;;;;;8.57;7.70;;;;;;;19.64;64.84;101119.16;5010201;28;20288;-72
2023/06/15 07:14:24;;;;;;;12.10;7.47;;;;;;;19.76;64.99;101113.47;5011761;28;20234;-72
2023/06/15 07:16:51;;;;;;;11.77;8.67;;;;;;;19.90;64.72;101129.66;5019515;28;20629;-72
2023/06/15 07:19:17;;;;;;;8.93;7.07;;;;;;;20.02;64.75;101123.97;5013253;28;20197;-72
2023/06/15 07:21:45;;;;;;;9.10;7.60;;;;;;;20.17;64.04;101128.28;5015645;28;20209;-72
2023/06/15 07:24:11;;;;;;;8.03;7.23;;;;;;;20.30;62.94;101121.47;5010363;28;21011;-72
2023/06/15 07:26:38;;;;;;;8.47;7.13;;;;;;;20.42;64.78;101123.03;5010134;28;20576;-72
2023/06/15 07:29:04;;;;;;;10.33;7.47;;;;;;;20.53;61.23;101116.56;5007561;28;20563;-72
2023/06/15 07:31:31;;;;;;;7.80;6.83;;;;;;;20.59;62.27;101122.34;5008858;28;20211;-72
2023/06/15 07:33:57;;;;;;;8.47;7.00;;;;;;;20.63;62.88;101131.13;5019350;28;20223;-72
2023/06/15 07:36:24;;;;;;;7.07;6.37;;;;;;;20.64;57.96;101124.66;5021312;28;20204;-72
2023/06/15 07:38:53;;;;;;;8.10;5.80;;;;;;;20.69;60.33;101130.41;5019733;28;20204;-72
2023/06/15 07:41:20;;;;;;;7.33;6.10;;;;;;;20.79;60.64;101128.88;5012140;28;20212;-72
2023/06/15 07:43:46;;;;;;;8.73;5.83;;;;;;;20.83;59.93;101126.97;5010604;28;20213;-72
2023/06/15 07:46:12;;;;;;;8.97;5.97;;;;;;;20.87;60.36;101127.75;5012837;28;20573;-72
2023/06/15 07:48:39;;;;;;;6.47;5.87;;;;;;;20.89;59.95;101128.16;5012248;28;20197;-72
2023/06/15 07:51:05;;;;;;;7.10;5.60;;;;;;;20.93;58.98;101129.72;5004879;28;20225;-72
2023/06/15 07:53:32;;;;;;;7.47;6.40;;;;;;;21.01;56.42;101125.88;5002292;28;20220;-72
2023/06/15 07:55:59;;;;;;;7.53;6.10;;;;;;;21.07;56.95;101123.59;5012744;28;20295;-72
2023/06/15 07:58:26;;;;;;;8.20;6.20;;;;;;;21.11;58.78;101127.81;4996694;28;20209;-72
2023/06/15 08:00:52;;;;;;;12.17;6.33;;;;;;;21.14;56.87;101124.38;5010002;28;20193;-72
2023/06/15 08:03:19;;;;;;;7.80;6.47;;;;;;;21.14;57.87;101129.75;5009795;28;20266;-72
2023/06/15 08:05:45;;;;;;;9.73;6.57;;;;;;;21.11;58.19;101130.50;5019963;28;20226;-72
2023/06/15 08:08:11;;;;;;;6.30;5.67;;;;;;;21.06;57.23;101132.81;5022292;28;20192;-72
2023/06/15 08:10:38;;;;;;;7.20;5.50;;;;;;;21.02;58.19;101122.06;5011001;28;20200;-72
2023/06/15 08:13:06;;;;;;;6.47;5.50;;;;;;;21.04;58.02;101121.66;5016960;28;20219;-72
2023/06/15 08:15:33;;;;;;;5.93;5.33;;;;;;;21.05;57.83;101123.97;5002392;28;20215;-72
2023/06/15 08:18:00;;;;;;;8.30;5.40;;;;;;;20.99;55.04;101122.03;5009974;28;20473;-72
2023/06/15 08:20:28;;;;;;;6.43;5.40;;;;;;;21.01;57.99;101125.88;5016670;28;20291;-72
2023/06/15 08:22:55;;;;;;;10.37;4.70;;;;;;;21.01;56.55;101122.44;5014503;28;20258;-72
2023/06/15 08:25:21;;;;;;;7.43;5.07;;;;;;;20.95;54.84;101122.03;5007136;28;20213;-72
2023/06/15 08:27:48;;;;;;;5.07;4.57;;;;;;;20.98;55.63;101110.53;5020606;28;20204;-72
2023/06/15 08:30:16;;;;;;;7.47;4.40;;;;;;;21.02;54.41;101111.31;5012660;28;20280;-72
2023/06/15 08:32:42;;;;;;;6.27;4.93;;;;;;;21.09;55.97;101108.63;5003802;28;20276;-72
2023/06/15 08:35:09;;;;;;;8.27;4.87;;;;;;;21.14;55.06;101110.94;5011433;28;20793;-72
2023/06/15 08:37:36;;;;;;;5.83;4.40;;;;;;;21.21;55.90;101115.56;5010409;28;20220;-72
2023/06/15 08:40:06;;;;;;;6.70;4.50;;;;;;;21.26;53.51;101112.47;5005040;28;20269;-72
2023/06/15 08:42:34;;;;;;;5.17;4.43;;;;;;;21.34;51.16;101109.41;5018012;28;20206;-72
2023/06/15 08:45:05;;;;;;;6.47;5.00;;;;;;;21.43;50.33;101117.06;5015611;28;20208;-72
2023/06/15 08:47:34;;;;;;;9.07;4.80;;;;;;;21.51;52.39;101105.94;5012748;28;20204;-72
2023/06/15 08:50:06;;;;;;;4.90;4.30;;;;;;;21.61;54.04;101107.84;5004553;28;20200;-72
2023/06/15 08:52:34;;;;;;;5.73;4.90;;;;;;;21.72;55.72;101111.31;5009348;28;20232;-72
2023/06/15 08:55:02;;;;;;;7.07;4.90;;;;;;;21.80;52.71;101112.84;5008540;28;20691;-72
2023/06/15 08:57:28;;;;;;;7.30;5.07;;;;;;;21.91;49.91;101112.78;5014550;28;20484;-72
2023/06/15 08:59:55;;;;;;;9.20;5.27;;;;;;;21.99;51.33;101117.00;5007996;28;20232;-72
2023/06/15 09:02:24;;;;;;;5.00;4.50;;;;;;;22.08;53.43;101112.75;5014548;28;20568;-72
2023/06/15 09:04:53;;;;;;;6.70;4.93;;;;;;;22.20;53.64;101119.63;5009737;28;20217;-72
2023/06/15 09:07:20;;;;;;;6.93;5.13;;;;;;;22.27;51.58;101119.59;5003581;28;20206;-72
2023/06/15 09:10:17;;;;;;;10.73;5.53;;;;;;;22.35;52.03;101121.09;5010089;28;20200;-72
2023/06/15 09:12:45;;;;;;;5.83;5.10;;;;;;;22.42;51.11;101115.69;4944393;28;20256;-72
2023/06/15 09:15:13;;;;;;;6.17;5.40;;;;;;;22.39;51.96;101116.44;4995278;28;20213;-72
2023/06/15 09:17:41;;;;;;;5.10;4.60;;;;;;;22.35;52.18;101111.09;5015112;28;20222;-72
2023/06/15 09:20:10;;;;;;;5.60;5.10;;;;;;;22.27;49.32;101114.19;5011180;28;20683;-72
2023/06/15 09:22:42;;;;;;;7.20;4.43;;;;;;;22.27;56.56;101114.19;5006322;28;20608;-72
2023/06/15 09:25:16;;;;;;;7.10;4.70;;;;;;;22.30;50.13;101110.75;5013983;28;20774;-72
2023/06/15 09:27:54;;;;;;;6.17;4.80;;;;;;;22.38;51.80;101113.00;5019024;28;20602;-72
2023/06/15 09:30:21;;;;;;;10.37;6.03;;;;;;;22.47;50.53;101104.53;5019188;28;20219;-72
2023/06/15 09:32:47;;;;;;;8.83;5.47;;;;;;;22.55;52.57;101112.16;5010817;28;20207;-72
2023/06/15 09:35:15;;;;;;;5.93;4.90;;;;;;;22.69;53.58;101105.94;5016415;28;20207;-72
2023/06/15 09:37:42;;;;;;;7.30;5.10;;;;;;;22.80;52.45;101095.84;5019186;28;20212;-72
2023/06/15 09:40:10;;;;;;;5.03;4.50;;;;;;;22.93;52.49;101095.00;5010216;28;20200;-72
2023/06/15 09:42:40;;;;;;;5.50;4.87;;;;;;;23.09;53.57;101086.41;5013491;28;20204;-72
2023/06/15 09:45:07;;;;;;;6.77;4.90;;;;;;;23.23;50.42;101082.88;5013568;28;20193;-72
2023/06/15 09:47:34;;;;;;;8.20;5.20;;;;;;;23.28;48.67;101083.22;5014871;28;21390;-72
2023/06/15 09:50:01;;;;;;;8.60;5.37;;;;;;;23.37;51.04;101080.81;5018268;28;20209;-72
2023/06/15 09:52:30;;;;;;;6.67;5.43;;;;;;;23.47;48.80;101074.56;5013196;28;20682;-72
2023/06/15 09:54:56;;;;;;;7.43;5.30;;;;;;;23.58;45.95;101066.38;5015298;28;20212;-72
2023/06/15 09:57:24;;;;;;;5.28;4.78;;;;;;;23.67;48.93;101068.19;5019803;28;20223;-72
2023/06/15 09:59:51;;;;;;;6.20;5.20;;;;;;;23.80;47.10;101053.00;5014107;28;20210;-72
2023/06/15 10:02:18;;;;;;;6.60;4.70;;;;;;;23.86;48.37;101054.09;5005933;28;20197;-72
2023/06/15 10:04:48;;;;;;;6.28;4.75;;;;;;;23.93;47.38;101063.31;5006261;28;20220;-72
2023/06/15 10:07:18;;;;;;;6.30;5.07;;;;;;;23.94;46.01;101067.53;5011228;28;20196;-72
2023/06/15 10:09:48;;;;;;;6.25;5.10;;;;;;;23.93;45.80;101066.75;5013554;28;20211;-72
2023/06/15 10:12:21;;;;;;;5.10;4.32;;;;;;;23.94;47.49;101064.84;5008193;28;20560;-72
2023/06/15 10:14:52;;;;;;;7.03;4.75;;;;;;;23.85;48.74;101070.69;5013019;28;20642;-72
2023/06/15 10:17:23;;;;;;;5.18;4.68;;;;;;;23.77;45.40;101067.31;5006704;28;20196;-72
2023/06/15 10:19:53;;;;;;;5.43;4.88;;;;;;;23.73;43.54;101060.41;5014600;28;20258;-72
2023/06/15 10:22:25;;;;;;;5.60;4.47;;;;;;;23.65;43.98;101065.09;5010948;28;20212;-72
2023/06/15 10:24:56;;;;;;;5.47;4.55;;;;;;;23.57;47.93;101065.59;5006865;28;20227;-72
2023/06/15 10:27:23;;;;;;;6.78;4.63;;;;;;;23.48;50.74;101072.63;5010175;28;20203;-72
2023/06/15 10:30:01;;;;;;;6.43;4.22;;;;;;;23.44;49.25;101067.28;5007170;28;20200;-72
2023/06/15 10:32:32;;;;;;;4.82;3.92;;;;;;;23.39;46.89;101062.31;5010620;28;20200;-72
2023/06/15 10:35:03;;;;;;;7.65;4.22;;;;;;;23.43;42.67;101057.66;5020019;28;20228;-72
2023/06/15 10:37:35;;;;;;;4.78;4.18;;;;;;;23.53;42.41;101054.06;5021693;28;20662;-72
2023/06/15 10:40:13;;;;;;;6.75;3.88;;;;;;;23.67;43.64;101054.72;5010063;28;20204;-72
2023/06/15 10:42:43;;;;;;;8.20;4.03;;;;;;;23.64;45.70;101052.81;5008738;28;20197;-72
2023/06/15 10:45:26;;;;;;;4.22;3.78;;;;;;;23.92;39.87;101049.06;5015692;28;20202;-72
2023/06/15 10:47:52;;;;;;;5.22;3.90;;;;;;;23.91;38.42;101047.53;5013725;28;20660;-72
2023/06/15 10:50:19;;;;;;;5.05;3.90;;;;;;;23.88;39.33;101045.59;5024368;28;20192;-72
2023/06/15 10:52:45;;;;;;;4.43;4.03;;;;;;;23.72;41.68;101050.03;5019193;28;20211;-72
2023/06/15 10:55:15;;;;;;;4.45;4.05;;;;;;;23.67;42.62;101046.63;5011608;28;20200;-72
2023/06/15 10:57:41;;;;;;;6.03;4.03;;;;;;;23.55;41.36;101043.66;5015522;28;20656;-72
2023/06/15 11:00:10;;;;;;;5.57;4.40;;;;;;;23.46;42.92;101045.31;5010437;28;20192;-71
2023/06/15 11:02:52;;;;;;;5.50;4.47;;;;;;;23.40;42.24;101047.66;5012011;28;20207;-71
2023/06/15 11:05:22;;;;;;;5.07;4.57;;;;;;;23.36;41.32;101046.19;5023308;28;20200;-71
2023/06/15 11:07:49;;;;;;;5.82;4.45;;;;;;;23.30;44.58;101053.94;5010162;28;20317;-71
2023/06/15 11:10:20;;;;;;;5.33;4.20;;;;;;;23.26;45.55;101049.75;5011796;28;20871;-71
2023/06/15 11:12:54;;;;;;;5.03;3.95;;;;;;;23.22;42.61;101049.75;5021736;28;20188;-71
2023/06/15 11:15:21;;;;;;;6.53;4.50;;;;;;;23.20;42.47;101035.94;5019029;28;20232;-71
2023/06/15 11:17:54;;;;;;;5.60;4.50;;;;;;;23.21;42.76;101040.16;5020134;28;20201;-71
2023/06/15 11:20:42;;;;;;;6.23;4.27;;;;;;;23.22;43.65;101036.28;5015274;28;20216;-71
2023/06/15 11:23:10;;;;;;;7.07;4.45;;;;;;;23.23;46.35;101038.59;5004519;28;20310;-71
2023/06/15 11:25:39;;;;;;;7.67;4.50;;;;;;;23.24;43.09;101042.06;5018590;28;20201;-71